»·PEaware :: KENT01 KSPS-KSPS

KENT01 :: KSPS-KSPS

FLIGHT INFORMATION

Flight Status: Arrived
Operator: Unknown
More flights by this operator :: More flights under this callsign
Pilot: 80 FTW ENJJPT (22981)
Aircraft: Unknown
(T-38)
More flights by this aircraft type
Origin: KSPS Sheppard AFB/Wichita Falls Mu
United States
Destination: KSPS Sheppard AFB/Wichita Falls Mu
United States
More flights between these airports :: More routes between these airports
Route: +SPS MIKKE SPS
File this flight plan on PilotEdge
Remarks:
Altitude:
(Current/Filed)
0ft
Speed:
(Current/Filed)
0kts
Departed: 11-Aug-20 07:16 AM
Arrived: 11-Aug-20 08:33 AM
Distance/Time
Traveled:
0nm/1:17
Distance/Time
To Go:
Arrived

Flight Plot

Page will automatically refresh every two minutes.

Flight plan parsing failed; only flown route is shown


Map Options




Map Legend


Flown Route
Filed Route
Departure Airport
Arrival Airport
Navaid (VOR, NDB)
Fix

Horizontal Profiles

Position Reports

Time Latitude Longitude Heading Altitude Ground
Speed
11-Aug-20 07:14 33.863718 -98.463906 226 5233ft 351kts
11-Aug-20 07:15 33.839810 -98.577448 263 12384ft 368kts
11-Aug-20 07:16 33.832166 -98.716810 269 16431ft 436kts
11-Aug-20 07:17 33.830500 -98.824632 266 19404ft 440kts
11-Aug-20 07:18 33.820209 -98.976812 265 21075ft 469kts
11-Aug-20 07:19 33.747072 -99.092905 191 21962ft 473kts
11-Aug-20 07:20 33.649547 -99.054540 41 16972ft 500kts
11-Aug-20 07:21 33.706388 -98.957195 179 14343ft 308kts
11-Aug-20 07:22 33.667285 -99.060511 258 12188ft 347kts
11-Aug-20 07:23 33.697040 -99.146270 48 11874ft 338kts
11-Aug-20 07:24 33.709193 -99.029690 65 11950ft 354kts
11-Aug-20 07:25 33.793868 -99.030932 349 12011ft 362kts
11-Aug-20 07:26 33.868306 -98.968519 62 11104ft 369kts
11-Aug-20 07:27 33.934856 -98.881727 42 8304ft 342kts
11-Aug-20 07:28 34.000423 -98.805039 43 5599ft 323kts
11-Aug-20 07:29 34.063456 -98.728431 47 3359ft 320kts
11-Aug-20 07:30 34.107725 -98.640001 74 3289ft 323kts
11-Aug-20 07:31 34.095044 -98.545830 148 3282ft 318kts
11-Aug-20 07:32 34.022079 -98.507532 158 2666ft 291kts
11-Aug-20 07:33 33.989567 -98.526134 334 2826ft 270kts
11-Aug-20 07:34 34.051820 -98.586237 269 4043ft 314kts
11-Aug-20 07:36 34.042366 -98.620588 242 3917ft 310kts
11-Aug-20 07:37 34.026259 -98.717155 308 3800ft 303kts
11-Aug-20 07:38 34.092519 -98.705650 72 3327ft 305kts
11-Aug-20 07:39 34.113695 -98.606219 76 3272ft 298kts
11-Aug-20 07:40 34.070219 -98.532187 158 3273ft 316kts
11-Aug-20 07:41 33.991239 -98.495038 191 2869ft 290kts
11-Aug-20 07:42 34.018950 -98.533051 20 2464ft 186kts
11-Aug-20 07:43 33.996731 -98.496108 154 1122ft 183kts
11-Aug-20 07:44 33.956110 -98.504282 321 2778ft 233kts
11-Aug-20 07:45 34.008983 -98.534593 354 2648ft 189kts
11-Aug-20 07:46 33.999361 -98.497226 158 1040ft 168kts
11-Aug-20 07:47 33.947996 -98.511592 242 2744ft 298kts
11-Aug-20 07:48 33.965817 -98.580179 351 2819ft 310kts
11-Aug-20 07:49 34.045081 -98.605282 45 2816ft 313kts
11-Aug-20 07:50 34.034252 -98.515402 155 2750ft 305kts
11-Aug-20 07:51 33.979820 -98.518829 334 2806ft 230kts
11-Aug-20 07:52 34.016861 -98.503643 156 1294ft 188kts
11-Aug-20 07:52 33.964462 -98.483264 205 2526ft 262kts
11-Aug-20 07:54 34.005010 -98.529454 334 2881ft 206kts
11-Aug-20 07:54 34.017304 -98.506738 147 1372ft 191kts
11-Aug-20 07:55 33.962352 -98.479140 156 2054ft 304kts
11-Aug-20 07:57 33.943251 -98.554782 335 2808ft 316kts
11-Aug-20 07:57 34.008092 -98.590008 336 2826ft 316kts
11-Aug-20 07:58 34.045110 -98.531757 113 2772ft 294kts
11-Aug-20 07:59 33.984931 -98.512209 311 2741ft 250kts
11-Aug-20 08:00 34.023059 -98.514032 126 1540ft 187kts
11-Aug-20 08:01 33.963237 -98.481215 165 2515ft 304kts
11-Aug-20 08:02 33.920780 -98.561984 289 2889ft 294kts
11-Aug-20 08:03 33.999725 -98.591607 338 2748ft 318kts
11-Aug-20 08:04 34.051057 -98.557275 134 3135ft 290kts
11-Aug-20 08:05 33.997816 -98.615314 247 4088ft 331kts
11-Aug-20 08:06 34.020630 -98.694786 345 3142ft 314kts
11-Aug-20 08:07 34.102892 -98.680722 49 2843ft 297kts
11-Aug-20 08:08 34.141572 -98.592163 103 2843ft 293kts
11-Aug-20 08:09 34.079423 -98.536630 158 2301ft 244kts
11-Aug-20 08:10 34.029552 -98.512129 157 1592ft 186kts
11-Aug-20 08:11 33.985182 -98.490539 158 1158ft 203kts
11-Aug-20 08:12 33.971036 -98.512970 338 2751ft 225kts
11-Aug-20 08:13 34.023059 -98.532332 47 2073ft 199kts
11-Aug-20 08:14 33.995372 -98.495381 158 1023ft 156kts
11-Aug-20 08:15 33.944383 -98.495695 272 2839ft 245kts
11-Aug-20 08:16 33.995690 -98.522817 335 2767ft 210kts
11-Aug-20 08:17 34.010942 -98.502910 158 1165ft 188kts
11-Aug-20 08:18 33.960495 -98.479158 168 1480ft 287kts
11-Aug-20 08:19 33.976551 -98.517285 340 2791ft 213kts
11-Aug-20 08:20 34.023810 -98.524260 81 1731ft 202kts
11-Aug-20 08:21 33.987983 -98.491760 158 1139ft 201kts
11-Aug-20 08:22 33.954718 -98.511008 338 2903ft 220kts
11-Aug-20 08:23 34.009019 -98.539127 0 2551ft 218kts
11-Aug-20 08:24 34.002998 -98.499101 157 1256ft 234kts
11-Aug-20 08:25 33.945552 -98.502351 277 2693ft 213kts
11-Aug-20 08:26 33.999911 -98.527380 332 2798ft 209kts
11-Aug-20 08:27 34.012159 -98.503342 159 1180ft 186kts
11-Aug-20 08:28 33.961156 -98.480187 185 2440ft 276kts
11-Aug-20 08:29 33.985477 -98.519627 334 2828ft 193kts
11-Aug-20 08:30 34.025036 -98.516735 113 1557ft 201kts
11-Aug-20 08:31 33.989258 -98.492816 158 1022ft 44kts
11-Aug-20 08:32 33.986742 -98.493392 251 1022ft 7kts

Navigation Log

Ident Type
Flight plan parsing failed, navigation log unavailable